createdAt,value
2023-05-08T00:01:16.904Z,2.40
2023-05-08T00:03:47.613Z,10.67
2023-05-08T00:06:18.109Z,10.98
2023-05-08T00:08:47.571Z,3.10
2023-05-08T00:11:16.669Z,2.55
2023-05-08T00:13:46.100Z,2.72
2023-05-08T00:16:15.499Z,2.53
2023-05-08T00:18:44.272Z,2.30
2023-05-08T00:21:12.831Z,2.58
2023-05-08T00:23:43.684Z,2.80
2023-05-08T00:26:12.403Z,3.58
2023-05-08T00:28:41.620Z,3.58
2023-05-08T00:31:10.476Z,2.63
2023-05-08T00:33:39.206Z,3.17
2023-05-08T00:36:08.520Z,2.90
2023-05-08T00:38:38.445Z,3.05
2023-05-08T00:41:08.692Z,3.70
2023-05-08T00:43:40.235Z,2.80
2023-05-08T00:46:09.847Z,3.47
2023-05-08T00:48:41.145Z,3.60
2023-05-08T00:51:11.463Z,2.42
2023-05-08T00:53:45.380Z,3.72
2023-05-08T00:56:18.208Z,2.65
2023-05-08T00:58:48.414Z,2.80
2023-05-08T01:01:17.218Z,2.85
2023-05-08T01:03:46.234Z,2.97
2023-05-08T01:06:14.886Z,3.00
2023-05-08T01:08:46.317Z,4.80
2023-05-08T01:11:23.042Z,3.75
2023-05-08T01:14:02.807Z,3.97
2023-05-08T01:16:41.152Z,2.92
2023-05-08T01:19:29.156Z,3.45
2023-05-08T01:22:06.611Z,2.90
2023-05-08T01:25:06.108Z,2.60
2023-05-08T01:28:07.072Z,3.38
2023-05-08T01:30:59.981Z,3.67
2023-05-08T01:33:36.866Z,3.88
2023-05-08T01:36:20.298Z,4.63
2023-05-08T01:38:57.431Z,4.95
2023-05-08T01:41:29.460Z,4.78
2023-05-08T01:44:12.180Z,4.57
2023-05-08T01:46:41.200Z,4.47
2023-05-08T01:49:19.171Z,3.75
2023-05-08T01:51:54.338Z,2.63
2023-05-08T01:54:27.282Z,2.97
2023-05-08T01:56:59.867Z,2.72
2023-05-08T01:59:31.702Z,2.70
2023-05-08T02:04:32.022Z,1.90
2023-05-08T02:07:02.287Z,2.15
2023-05-08T02:09:33.612Z,2.70
2023-05-08T02:12:04.334Z,2.97
2023-05-08T02:14:34.285Z,3.03
2023-05-08T02:17:05.503Z,2.40
2023-05-08T02:19:37.935Z,2.38
2023-05-08T02:22:08.660Z,2.08
2023-05-08T02:24:39.288Z,2.28
2023-05-08T02:27:10.465Z,2.30
2023-05-08T02:29:43.125Z,2.40
2023-05-08T02:32:16.353Z,2.33
2023-05-08T02:35:02.570Z,2.72
2023-05-08T02:37:36.627Z,2.75
2023-05-08T02:40:11.387Z,2.40
2023-05-08T02:42:42.901Z,2.60
2023-05-08T02:45:23.874Z,2.92
2023-05-08T02:48:09.481Z,2.60
2023-05-08T02:51:03.583Z,2.45
2023-05-08T02:53:53.803Z,2.33
2023-05-08T02:56:34.887Z,2.90
2023-05-08T02:59:16.015Z,2.78
2023-05-08T03:02:19.145Z,3.10
2023-05-08T03:04:58.786Z,3.25
2023-05-08T03:07:32.349Z,3.17
2023-05-08T03:10:11.127Z,3.00
2023-05-08T03:13:05.511Z,3.13
2023-05-08T03:15:44.197Z,3.03
2023-05-08T03:18:26.709Z,2.65
2023-05-08T03:21:04.906Z,3.00
2023-05-08T03:23:42.704Z,2.40
2023-05-08T03:26:50.729Z,2.95
2023-05-08T03:29:21.779Z,3.10
2023-05-08T03:31:52.554Z,2.78
2023-05-08T03:34:22.910Z,2.88
2023-05-08T03:36:52.598Z,3.53
2023-05-08T03:39:23.303Z,3.90
2023-05-08T03:41:52.646Z,3.03
2023-05-08T03:44:21.878Z,3.72
2023-05-08T03:46:52.084Z,3.20
2023-05-08T03:49:23.988Z,3.20
2023-05-08T03:51:54.246Z,3.47
2023-05-08T03:54:25.832Z,3.45
2023-05-08T03:56:55.913Z,3.72
2023-05-08T03:59:36.839Z,3.45
2023-05-08T04:02:15.349Z,3.20
2023-05-08T04:04:47.178Z,3.30
2023-05-08T04:07:26.151Z,4.13
2023-05-08T04:10:03.170Z,4.00
2023-05-08T04:12:40.208Z,3.50
2023-05-08T04:15:14.393Z,3.40
2023-05-08T04:17:47.431Z,3.58
2023-05-08T04:20:21.418Z,4.13
2023-05-08T04:22:54.095Z,4.47
2023-05-08T04:25:27.168Z,4.10
2023-05-08T04:27:58.779Z,4.90
2023-05-08T04:30:28.533Z,4.22
2023-05-08T04:32:58.153Z,4.10
2023-05-08T04:35:27.919Z,3.33
2023-05-08T04:37:57.631Z,3.30
2023-05-08T04:40:27.994Z,3.72
2023-05-08T04:42:57.332Z,2.92
2023-05-08T04:45:27.366Z,4.32
2023-05-08T04:47:56.306Z,3.28
2023-05-08T04:50:25.790Z,3.28
2023-05-08T04:52:54.965Z,3.25
2023-05-08T04:55:23.468Z,3.72
2023-05-08T04:57:53.330Z,3.60
2023-05-08T05:00:22.481Z,3.05
2023-05-08T05:02:51.059Z,3.47
2023-05-08T05:05:20.034Z,3.47
2023-05-08T05:07:48.717Z,3.40
2023-05-08T05:10:18.498Z,3.40
2023-05-08T05:12:47.924Z,3.80
2023-05-08T05:15:18.653Z,3.60
2023-05-08T05:17:47.708Z,3.20
2023-05-08T05:20:17.387Z,3.20
2023-05-08T05:22:46.467Z,3.10
2023-05-08T05:25:16.273Z,3.05
2023-05-08T05:27:45.255Z,3.78
2023-05-08T05:30:14.455Z,3.30
2023-05-08T05:32:45.140Z,3.17
2023-05-08T05:35:14.001Z,3.13
2023-05-08T05:37:43.133Z,3.13
2023-05-08T05:40:13.656Z,4.25
2023-05-08T05:42:43.224Z,3.67
2023-05-08T05:45:12.697Z,3.35
2023-05-08T05:47:50.578Z,2.75
2023-05-08T05:50:22.721Z,3.53
2023-05-08T05:52:52.890Z,3.67
2023-05-08T05:55:22.936Z,10.00
2023-05-08T05:57:51.770Z,7.05
2023-05-08T06:00:21.648Z,5.18
2023-05-08T06:02:56.143Z,7.47
2023-05-08T06:05:25.271Z,3.92
2023-05-08T06:07:53.988Z,6.32
2023-05-08T06:10:22.829Z,2.80
2023-05-08T06:12:52.065Z,2.88
2023-05-08T06:15:21.021Z,3.28
2023-05-08T06:17:50.385Z,3.03
2023-05-08T06:20:21.059Z,2.40
2023-05-08T06:22:49.877Z,2.25
2023-05-08T06:25:19.391Z,7.18
2023-05-08T06:27:47.856Z,3.15
2023-05-08T06:30:16.783Z,4.07
2023-05-08T06:32:45.965Z,3.25
2023-05-08T06:35:18.494Z,3.25
2023-05-08T06:37:48.450Z,4.20
2023-05-08T06:40:17.263Z,2.47
2023-05-08T06:42:46.405Z,2.30
2023-05-08T06:45:15.636Z,2.03
2023-05-08T06:47:44.523Z,2.67
2023-05-08T06:50:13.328Z,1.45
2023-05-08T06:52:42.497Z,1.52
2023-05-08T06:55:15.247Z,7.90
2023-05-08T06:57:44.508Z,6.68
2023-05-08T07:00:14.909Z,2.20
2023-05-08T07:02:45.601Z,1.38
2023-05-08T07:05:14.893Z,1.85
2023-05-08T07:07:43.925Z,8.90
2023-05-08T07:10:14.432Z,2.20
2023-05-08T07:12:43.828Z,1.50
2023-05-08T07:15:24.713Z,1.70
2023-05-08T07:17:55.454Z,1.40
2023-05-08T07:20:24.630Z,1.63
2023-05-08T07:22:53.324Z,1.85
2023-05-08T07:25:23.784Z,1.75
2023-05-08T07:27:52.649Z,1.50
2023-05-08T07:30:22.095Z,1.60
2023-05-08T07:32:51.262Z,1.20
2023-05-08T07:35:22.933Z,2.13
2023-05-08T07:37:52.958Z,1.83
2023-05-08T07:40:23.590Z,1.50
2023-05-08T07:42:54.792Z,1.42
2023-05-08T07:45:24.248Z,1.83
2023-05-08T07:47:55.288Z,11.32
2023-05-08T07:50:25.489Z,5.28
2023-05-08T07:52:57.701Z,9.95
2023-05-08T07:55:28.160Z,12.30
2023-05-08T07:57:57.516Z,1.50
2023-05-08T08:00:27.634Z,1.45
2023-05-08T08:02:59.000Z,1.35
2023-05-08T08:05:31.612Z,1.60
2023-05-08T08:08:00.530Z,2.20
2023-05-08T08:10:31.676Z,2.10
2023-05-08T08:13:01.954Z,2.40
2023-05-08T08:15:31.017Z,1.58
2023-05-08T08:18:00.409Z,2.22
2023-05-08T08:20:30.008Z,1.60
2023-05-08T08:22:58.927Z,1.60
2023-05-08T08:25:28.070Z,1.80
2023-05-08T08:27:58.982Z,1.40
2023-05-08T08:30:30.907Z,1.85
2023-05-08T08:33:02.488Z,1.35
2023-05-08T08:38:00.752Z,1.33
2023-05-08T08:40:29.979Z,1.40
2023-05-08T08:43:01.084Z,1.20
2023-05-08T08:45:30.513Z,1.58
2023-05-08T08:48:03.873Z,1.50
2023-05-08T08:50:34.333Z,1.27
2023-05-08T08:53:12.045Z,1.63
2023-05-08T08:55:45.761Z,1.38
2023-05-08T08:58:24.159Z,1.40
2023-05-08T09:00:57.884Z,1.40
2023-05-08T09:03:27.475Z,1.73
2023-05-08T09:05:56.883Z,1.92
2023-05-08T09:08:26.153Z,1.50
2023-05-08T09:10:57.818Z,1.80
2023-05-08T09:13:30.416Z,1.55
2023-05-08T09:16:00.589Z,1.25
2023-05-08T09:18:30.080Z,1.63
2023-05-08T09:21:00.611Z,1.60
2023-05-08T09:23:29.504Z,1.48
2023-05-08T09:26:01.491Z,2.30
2023-05-08T09:28:32.406Z,1.70
2023-05-08T09:31:02.338Z,1.70
2023-05-08T09:33:31.578Z,1.33
2023-05-08T09:36:04.324Z,1.45
2023-05-08T09:38:38.940Z,1.50
2023-05-08T09:41:09.616Z,1.27
2023-05-08T09:43:40.394Z,1.60
2023-05-08T09:46:25.970Z,1.40
2023-05-08T09:48:56.508Z,1.58
2023-05-08T09:51:26.601Z,1.50
2023-05-08T09:53:56.757Z,1.45
2023-05-08T09:56:34.218Z,1.20
2023-05-08T09:59:06.811Z,1.40
2023-05-08T10:01:39.944Z,1.05
2023-05-08T10:04:12.222Z,1.40
2023-05-08T10:06:41.389Z,1.50
2023-05-08T10:09:12.023Z,1.52
2023-05-08T10:11:41.754Z,1.58
2023-05-08T10:14:12.290Z,1.55
2023-05-08T10:16:45.746Z,1.55
2023-05-08T10:19:16.321Z,1.33
2023-05-08T10:21:48.588Z,1.33
2023-05-08T10:24:19.619Z,1.13
2023-05-08T10:27:06.801Z,1.70
2023-05-08T10:29:44.459Z,1.42
2023-05-08T10:32:16.052Z,1.30
2023-05-08T10:34:48.248Z,0.93
2023-05-08T10:37:17.916Z,1.00
2023-05-08T10:39:47.971Z,1.50
2023-05-08T10:42:17.092Z,1.30
2023-05-08T10:44:47.863Z,1.20
2023-05-08T10:47:29.302Z,1.02
2023-05-08T10:50:05.803Z,0.98
2023-05-08T10:52:40.988Z,1.10
2023-05-08T10:55:24.317Z,1.55
2023-05-08T10:58:07.870Z,1.55
2023-05-08T11:01:15.172Z,1.33
2023-05-08T11:03:51.082Z,1.52
2023-05-08T11:06:49.165Z,1.40
2023-05-08T11:09:29.703Z,1.20
2023-05-08T11:12:09.577Z,1.17
2023-05-08T11:14:43.074Z,1.63
2023-05-08T11:17:13.422Z,1.50
2023-05-08T11:19:57.647Z,1.05
2023-05-08T11:22:31.176Z,1.52
2023-05-08T11:25:05.609Z,1.05
2023-05-08T11:27:39.707Z,8.05
2023-05-08T11:30:26.491Z,5.13
2023-05-08T11:33:19.000Z,1.60
2023-05-08T11:35:53.370Z,1.30
2023-05-08T11:38:25.233Z,1.30
2023-05-08T11:41:02.832Z,1.00
2023-05-08T11:44:15.689Z,1.67
2023-05-08T11:46:50.151Z,1.05
2023-05-08T11:49:27.085Z,1.23
2023-05-08T11:52:00.521Z,1.00
2023-05-08T11:54:32.899Z,1.45
2023-05-08T11:57:02.685Z,1.35
2023-05-08T11:59:37.446Z,1.17
2023-05-08T12:02:09.087Z,1.00
2023-05-08T12:04:47.251Z,1.00
2023-05-08T12:07:16.582Z,1.15
2023-05-08T12:09:47.452Z,1.48
2023-05-08T12:12:17.266Z,2.13
2023-05-08T12:14:50.607Z,1.23
2023-05-08T12:17:20.175Z,1.23
2023-05-08T12:19:55.570Z,1.02
2023-05-08T12:22:24.666Z,1.38
2023-05-08T12:24:55.686Z,1.40
2023-05-08T12:27:26.710Z,1.25
2023-05-08T12:29:56.083Z,1.35
2023-05-08T12:32:27.723Z,1.48
2023-05-08T12:35:03.103Z,1.00
2023-05-08T12:37:32.323Z,1.10
2023-05-08T12:40:01.609Z,1.85
2023-05-08T12:42:46.924Z,1.30
2023-05-08T12:45:20.182Z,1.00
2023-05-08T12:47:50.374Z,1.17
2023-05-08T12:50:23.260Z,1.20
2023-05-08T12:52:53.307Z,1.50
2023-05-08T12:55:26.715Z,1.20
2023-05-08T12:58:07.741Z,1.40
2023-05-08T13:00:39.415Z,1.02
2023-05-08T13:03:09.592Z,1.05
2023-05-08T13:05:44.370Z,1.67
2023-05-08T13:08:13.928Z,1.55
2023-05-08T13:10:51.204Z,1.45
2023-05-08T13:13:21.780Z,1.23
2023-05-08T13:15:53.224Z,1.20
2023-05-08T13:18:25.778Z,1.38
2023-05-08T13:20:59.135Z,1.55
2023-05-08T13:23:28.514Z,1.67
2023-05-08T13:25:58.275Z,1.33
2023-05-08T13:28:28.286Z,1.45
2023-05-08T13:30:57.847Z,1.50
2023-05-08T13:33:27.686Z,1.58
2023-05-08T13:36:01.841Z,1.08
2023-05-08T13:38:31.148Z,1.30
2023-05-08T13:41:01.775Z,1.50
2023-05-08T13:43:31.199Z,1.75
2023-05-08T13:46:00.333Z,1.20
2023-05-08T13:48:29.721Z,1.40
2023-05-08T13:50:59.133Z,1.33
2023-05-08T13:53:29.759Z,1.85
2023-05-08T13:55:58.583Z,1.27
2023-05-08T13:58:27.689Z,1.15
2023-05-08T14:00:57.140Z,1.33
2023-05-08T14:03:29.223Z,1.20
2023-05-08T14:05:58.522Z,1.38
2023-05-08T14:08:29.548Z,1.20
2023-05-08T14:10:58.840Z,1.33
2023-05-08T14:13:28.091Z,1.52
2023-05-08T14:15:57.269Z,1.10
2023-05-08T14:18:26.926Z,0.90
2023-05-08T14:20:57.469Z,1.50
2023-05-08T14:23:30.499Z,1.00
2023-05-08T14:25:59.547Z,1.33
2023-05-08T14:28:29.001Z,0.85
2023-05-08T14:30:58.499Z,1.02
2023-05-08T14:33:27.186Z,1.20
2023-05-08T14:35:57.052Z,1.10
2023-05-08T14:38:26.647Z,1.20
2023-05-08T14:40:56.688Z,1.00
2023-05-08T14:43:25.685Z,1.40
2023-05-08T14:45:54.588Z,1.23
2023-05-08T14:48:24.265Z,1.33
2023-05-08T14:50:53.492Z,1.20
2023-05-08T14:53:22.412Z,1.10
2023-05-08T14:55:51.604Z,1.20
2023-05-08T14:58:22.222Z,1.25
2023-05-08T15:00:51.653Z,1.38
2023-05-08T15:03:20.766Z,1.48
2023-05-08T15:05:49.883Z,1.05
2023-05-08T15:08:18.867Z,1.35
2023-05-08T15:10:47.958Z,1.35
2023-05-08T15:13:16.928Z,1.00
2023-05-08T15:15:47.239Z,1.30
2023-05-08T15:18:16.930Z,1.40
2023-05-08T15:20:46.414Z,1.38
2023-05-08T15:23:15.289Z,0.98
2023-05-08T15:25:46.456Z,1.30
2023-05-08T15:28:15.756Z,1.23
2023-05-08T15:30:49.829Z,1.02
2023-05-08T15:33:18.775Z,1.08
2023-05-08T15:35:47.927Z,0.95
2023-05-08T15:38:17.213Z,1.10
2023-05-08T15:40:46.579Z,1.70
2023-05-08T15:43:15.486Z,1.45
2023-05-08T15:45:44.222Z,1.40
2023-05-08T15:48:15.767Z,1.40
2023-05-08T15:50:46.268Z,1.40
2023-05-08T15:53:15.314Z,1.25
2023-05-08T15:55:44.304Z,1.27
2023-05-08T15:58:14.129Z,1.70
2023-05-08T16:00:45.508Z,1.65
2023-05-08T16:03:17.361Z,2.08
2023-05-08T16:05:46.916Z,1.75
2023-05-08T16:08:16.819Z,1.38
2023-05-08T16:10:45.596Z,1.15
2023-05-08T16:13:14.576Z,1.23
2023-05-08T16:15:43.681Z,1.38
2023-05-08T16:18:12.879Z,1.23
2023-05-08T16:20:43.812Z,1.10
2023-05-08T16:25:43.393Z,1.50
2023-05-08T16:28:12.528Z,1.45
2023-05-08T16:30:41.719Z,1.42
2023-05-08T16:33:12.512Z,1.65
2023-05-08T16:35:43.173Z,1.42
2023-05-08T16:38:11.955Z,1.40
2023-05-08T16:40:42.002Z,1.20
2023-05-08T16:43:11.302Z,1.33
2023-05-08T16:45:40.063Z,1.38
2023-05-08T16:48:09.854Z,1.20
2023-05-08T16:50:39.123Z,1.30
2023-05-08T16:53:09.852Z,1.15
2023-05-08T16:55:38.866Z,2.97
2023-05-08T16:58:08.016Z,1.27
2023-05-08T17:00:37.442Z,1.00
2023-05-08T17:03:11.542Z,1.25
2023-05-08T17:05:41.811Z,1.30
2023-05-08T17:08:13.258Z,1.17
2023-05-08T17:10:43.966Z,1.40
2023-05-08T17:13:13.350Z,1.53
2023-05-08T17:15:43.374Z,1.38
2023-05-08T17:18:13.004Z,1.25
2023-05-08T17:20:42.863Z,1.30
2023-05-08T17:23:13.232Z,1.42
2023-05-08T17:25:42.129Z,1.50
2023-05-08T17:28:11.230Z,1.17
2023-05-08T17:30:41.399Z,1.45
2023-05-08T17:33:10.073Z,2.10
2023-05-08T17:35:38.829Z,2.03
2023-05-08T17:38:08.009Z,2.22
2023-05-08T17:40:39.249Z,4.03
2023-05-08T17:43:09.331Z,5.95
2023-05-08T17:48:14.639Z,7.20
2023-05-08T17:50:47.694Z,8.18
2023-05-08T17:53:22.365Z,5.80
2023-05-08T17:55:54.882Z,3.30
2023-05-08T17:58:24.036Z,4.35
2023-05-08T18:00:54.522Z,3.83
2023-05-08T18:03:24.453Z,4.10
2023-05-08T18:05:53.920Z,5.55
2023-05-08T18:08:23.269Z,15.48
2023-05-08T18:10:52.363Z,9.23
2023-05-08T18:13:23.186Z,11.45
2023-05-08T18:15:53.288Z,6.70
2023-05-08T18:18:22.628Z,5.05
2023-05-08T18:20:53.208Z,4.50
2023-05-08T18:23:24.553Z,6.47
2023-05-08T18:25:53.635Z,4.03
2023-05-08T18:28:23.883Z,4.90
2023-05-08T18:30:52.810Z,3.20
2023-05-08T18:33:21.985Z,3.10
2023-05-08T18:35:55.894Z,2.92
2023-05-08T18:38:25.472Z,2.85
2023-05-08T18:40:54.579Z,2.53
2023-05-08T18:43:24.864Z,3.03
2023-05-08T18:45:53.829Z,3.25
2023-05-08T18:48:22.980Z,2.78
2023-05-08T18:50:52.167Z,2.40
2023-05-08T18:53:21.616Z,2.45
2023-05-08T18:55:51.199Z,2.80
2023-05-08T18:58:20.344Z,3.80
2023-05-08T19:00:50.595Z,2.15
2023-05-08T19:03:19.899Z,2.38
2023-05-08T19:05:48.756Z,2.80
2023-05-08T19:08:18.853Z,2.28
2023-05-08T19:10:47.975Z,2.53
2023-05-08T19:13:17.150Z,2.13
2023-05-08T19:15:46.668Z,2.22
2023-05-08T19:18:18.278Z,2.85
2023-05-08T19:20:47.075Z,4.50
2023-05-08T19:23:17.421Z,3.45
2023-05-08T19:25:46.393Z,3.03
2023-05-08T19:28:15.435Z,3.08
2023-05-08T19:30:44.485Z,5.60
2023-05-08T19:33:13.426Z,6.22
2023-05-08T19:35:45.147Z,4.40
2023-05-08T19:38:14.119Z,3.00
2023-05-08T19:40:55.716Z,3.10
2023-05-08T19:43:26.195Z,3.85
2023-05-08T19:45:56.727Z,4.15
2023-05-08T19:48:26.816Z,4.75
2023-05-08T19:50:57.304Z,4.13
2023-05-08T19:53:26.333Z,5.00
2023-05-08T19:55:55.094Z,5.65
2023-05-08T19:58:24.413Z,5.20
2023-05-08T20:00:53.384Z,4.70
2023-05-08T20:03:23.238Z,4.40
2023-05-08T20:05:54.363Z,7.30
2023-05-08T20:08:25.866Z,3.85
2023-05-08T20:10:55.013Z,5.53
2023-05-08T20:13:24.395Z,6.05
2023-05-08T20:15:54.103Z,4.93
2023-05-08T20:18:23.233Z,5.38
2023-05-08T20:20:53.584Z,4.65
2023-05-08T20:23:22.942Z,5.38
2023-05-08T20:25:54.919Z,6.10
2023-05-08T20:30:55.308Z,4.65
2023-05-08T20:33:24.161Z,5.57
2023-05-08T20:35:54.293Z,3.58
2023-05-08T20:38:23.488Z,4.95
2023-05-08T20:40:59.353Z,4.68
2023-05-08T20:43:29.830Z,4.18
2023-05-08T20:45:59.124Z,4.65
2023-05-08T20:48:28.296Z,3.33
2023-05-08T20:50:57.413Z,13.32
2023-05-08T20:53:26.040Z,15.27
2023-05-08T20:56:03.297Z,9.15
2023-05-08T20:58:32.902Z,6.93
2023-05-08T21:01:02.511Z,7.38
2023-05-08T21:03:31.901Z,11.05
2023-05-08T21:06:01.244Z,11.07
2023-05-08T21:08:30.673Z,10.10
2023-05-08T21:11:02.360Z,11.45
2023-05-08T21:13:33.496Z,11.50
2023-05-08T21:16:03.272Z,12.23
2023-05-08T21:18:32.834Z,11.45
2023-05-08T21:21:02.241Z,9.00
2023-05-08T21:23:31.951Z,9.98
2023-05-08T21:26:01.077Z,10.38
2023-05-08T21:28:32.646Z,13.82
2023-05-08T21:31:03.027Z,10.80
2023-05-08T21:33:33.977Z,8.93
2023-05-08T21:36:03.169Z,9.60
2023-05-08T21:38:32.367Z,10.07
2023-05-08T21:41:07.841Z,10.77
2023-05-08T21:43:37.287Z,10.07
2023-05-08T21:46:09.398Z,9.65
2023-05-08T21:51:07.775Z,10.45
2023-05-08T21:53:36.516Z,9.13
2023-05-08T21:56:07.368Z,13.27
2023-05-08T21:58:36.336Z,11.95
2023-05-08T22:01:07.862Z,12.02
2023-05-08T22:03:37.253Z,9.88
2023-05-08T22:06:06.462Z,11.90
2023-05-08T22:08:36.016Z,9.57
2023-05-08T22:11:05.932Z,8.73
2023-05-08T22:13:34.925Z,8.80
2023-05-08T22:16:04.227Z,8.38
2023-05-08T22:18:34.753Z,8.30
2023-05-08T22:21:04.950Z,8.02
2023-05-08T22:23:35.038Z,7.85
2023-05-08T22:26:04.462Z,8.38
2023-05-08T22:28:33.032Z,7.63
2023-05-08T22:31:01.793Z,7.38
2023-05-08T22:33:33.980Z,7.60
2023-05-08T22:36:04.541Z,10.15
2023-05-08T22:38:33.186Z,8.88
2023-05-08T22:41:02.127Z,9.02
2023-05-08T22:43:30.932Z,10.82
2023-05-08T22:46:00.324Z,9.32
2023-05-08T22:48:30.166Z,10.80
2023-05-08T22:50:59.388Z,10.75
2023-05-08T22:53:29.576Z,9.27
2023-05-08T22:55:58.426Z,9.20
2023-05-08T22:58:27.358Z,9.77
2023-05-08T23:00:56.369Z,9.18
2023-05-08T23:03:26.747Z,10.23
2023-05-08T23:05:57.209Z,13.20
2023-05-08T23:08:28.828Z,8.90
2023-05-08T23:11:00.585Z,8.88
2023-05-08T23:13:37.371Z,9.82
2023-05-08T23:16:06.792Z,9.63
2023-05-08T23:18:35.522Z,9.15
2023-05-08T23:21:08.038Z,9.85
2023-05-08T23:23:37.688Z,9.98
2023-05-08T23:26:08.093Z,8.48
2023-05-08T23:28:37.111Z,8.18
2023-05-08T23:31:08.171Z,8.68
2023-05-08T23:33:36.965Z,8.40
2023-05-08T23:36:06.246Z,10.30
2023-05-08T23:38:34.948Z,8.20
2023-05-08T23:41:03.709Z,7.65
2023-05-08T23:43:34.606Z,8.35
2023-05-08T23:46:03.710Z,7.75
2023-05-08T23:48:32.250Z,8.05
2023-05-08T23:51:00.894Z,7.07
2023-05-08T23:53:29.467Z,7.53
2023-05-08T23:55:57.879Z,7.80
2023-05-08T23:58:26.508Z,6.90
